Time;durP1;ratioP1;P1;durP2;ratioP2;P2;SDS_P1;SDS_P2;PMS_P1;PMS_P2;Temp;Humidity;BMP_temperature;BMP_pressure;BME280_temperature;BME280_humidity;BME280_pressure;Samples;Min_cycle;Max_cycle;Signal;HPM_P1;HPM_P2
2022/03/07 00:00:09;;;;;;;45.83;26.83;;;4.30;93.50;;;;;;5047776;28;20029;-75
2022/03/07 00:02:35;;;;;;;43.80;25.90;;;4.30;93.90;;;;;;5044334;28;20033;-72
2022/03/07 00:05:01;;;;;;;47.60;26.55;;;4.30;94.50;;;;;;5047917;28;20037;-73
2022/03/07 00:07:27;;;;;;;47.83;26.60;;;4.40;94.40;;;;;;5042665;28;20037;-74
2022/03/07 00:09:53;;;;;;;47.30;27.17;;;4.40;94.30;;;;;;5045471;28;20458;-75
2022/03/07 00:12:18;;;;;;;43.47;24.77;;;4.40;94.30;;;;;;5048096;28;20543;-73
2022/03/07 00:14:44;;;;;;;47.15;25.35;;;4.40;94.30;;;;;;5039831;28;20029;-74
2022/03/07 00:17:10;;;;;;;47.47;25.58;;;4.30;94.10;;;;;;5046747;28;20028;-73
2022/03/07 00:19:36;;;;;;;45.70;25.83;;;4.30;94.10;;;;;;5050320;28;20067;-76
2022/03/07 00:22:01;;;;;;;46.13;26.40;;;4.30;94.10;;;;;;5050114;28;20069;-74
2022/03/07 00:24:27;;;;;;;48.30;26.17;;;4.30;94.20;;;;;;5048175;28;20071;-74
2022/03/07 00:26:55;;;;;;;48.10;26.73;;;4.30;94.20;;;;;;5051192;28;20081;-73
2022/03/07 00:29:24;;;;;;;44.05;25.50;;;4.30;94.20;;;;;;5048480;28;20111;-74
2022/03/07 00:31:57;;;;;;;47.35;25.75;;;4.20;94.50;;;;;;5050664;28;20116;-72
2022/03/07 00:34:26;;;;;;;46.72;26.40;;;4.20;94.60;;;;;;5050422;28;20025;-78
2022/03/07 00:36:59;;;;;;;48.65;26.83;;;4.20;94.60;;;;;;5051391;28;20385;-74
2022/03/07 00:39:28;;;;;;;44.45;24.80;;;4.20;94.50;;;;;;5043537;28;20704;-72
2022/03/07 00:41:58;;;;;;;44.63;25.02;;;4.20;94.30;;;;;;5044972;28;20024;-74
2022/03/07 00:44:27;;;;;;;43.20;25.25;;;4.20;94.60;;;;;;5051761;28;20029;-75
2022/03/07 00:46:59;;;;;;;47.70;25.88;;;4.20;94.30;;;;;;5051704;28;20044;-72
2022/03/07 00:49:29;;;;;;;45.05;26.15;;;4.20;94.60;;;;;;5049902;28;20028;-73
2022/03/07 00:52:02;;;;;;;45.70;26.90;;;4.20;94.90;;;;;;5042165;28;20041;-73
2022/03/07 00:54:32;;;;;;;44.15;26.42;;;4.10;95.20;;;;;;5050735;28;20083;-73
2022/03/07 00:56:59;;;;;;;45.60;26.48;;;4.10;95.30;;;;;;5057815;28;20032;-74
2022/03/07 00:59:29;;;;;;;44.55;25.77;;;4.10;95.40;;;;;;5052942;28;20041;-76
2022/03/07 01:02:00;;;;;;;46.63;25.50;;;4.10;95.50;;;;;;5050793;28;20037;-75
2022/03/07 01:04:32;;;;;;;45.03;25.45;;;4.10;95.60;;;;;;5050757;28;20128;-74
2022/03/07 01:06:59;;;;;;;45.55;26.23;;;4.10;95.60;;;;;;5050484;28;20047;-75
2022/03/07 01:09:24;;;;;;;46.95;26.25;;;4.10;95.60;;;;;;5050499;28;20108;-75
2022/03/07 01:11:50;;;;;;;43.13;25.88;;;4.00;95.70;;;;;;5044874;28;20234;-74
2022/03/07 01:14:16;;;;;;;40.47;24.95;;;4.00;95.80;;;;;;5046940;28;20033;-75
2022/03/07 01:16:42;;;;;;;44.38;25.75;;;4.00;95.70;;;;;;5039662;28;20037;-73
2022/03/07 01:19:08;;;;;;;43.40;25.52;;;4.00;95.70;;;;;;5042999;28;20101;-75
2022/03/07 01:21:34;;;;;;;43.25;24.88;;;4.00;95.60;;;;;;5045973;28;20107;-74
2022/03/07 01:24:00;;;;;;;42.47;25.13;;;4.00;95.60;;;;;;5045808;28;20037;-74
2022/03/07 01:26:25;;;;;;;42.85;24.65;;;3.90;95.40;;;;;;5034253;28;20515;-73
2022/03/07 01:28:51;;;;;;;41.72;24.88;;;3.90;95.40;;;;;;5024937;28;20399;-75
2022/03/07 01:31:17;;;;;;;44.00;24.63;;;3.90;95.20;;;;;;5045711;28;20571;-74
2022/03/07 01:33:43;;;;;;;47.28;26.35;;;3.80;95.30;;;;;;5039247;28;20096;-74
2022/03/07 01:36:08;;;;;;;43.28;24.05;;;3.80;95.40;;;;;;5041878;28;20039;-75
2022/03/07 01:38:34;;;;;;;43.45;24.42;;;3.80;95.80;;;;;;5043109;28;20159;-73
2022/03/07 01:41:00;;;;;;;44.95;25.55;;;3.80;95.40;;;;;;5045192;28;20411;-74
2022/03/07 01:43:26;;;;;;;41.38;24.60;;;3.80;95.40;;;;;;5045277;28;20026;-74
2022/03/07 01:45:52;;;;;;;45.35;25.42;;;3.70;95.30;;;;;;5048664;28;20033;-72
2022/03/07 01:48:18;;;;;;;39.67;24.27;;;3.70;95.40;;;;;;5038556;28;20404;-74
2022/03/07 01:50:44;;;;;;;42.13;25.48;;;3.70;95.40;;;;;;5044106;28;20041;-75
2022/03/07 01:53:10;;;;;;;43.83;24.83;;;3.60;95.40;;;;;;5041446;28;20032;-75
2022/03/07 01:55:35;;;;;;;45.17;25.20;;;3.60;95.60;;;;;;5042934;28;20472;-74
2022/03/07 01:58:01;;;;;;;45.03;25.58;;;3.60;95.70;;;;;;5040262;28;20070;-73
2022/03/07 02:00:28;;;;;;;44.50;25.35;;;3.60;95.60;;;;;;5049659;28;20407;-73
2022/03/07 02:02:54;;;;;;;44.10;25.90;;;3.60;95.90;;;;;;5047882;28;20686;-73
2022/03/07 02:05:20;;;;;;;44.97;26.20;;;3.60;95.80;;;;;;5049976;28;20708;-75
2022/03/07 02:07:46;;;;;;;45.22;26.52;;;3.60;95.90;;;;;;5044803;28;20025;-72
2022/03/07 02:10:12;;;;;;;45.75;24.70;;;3.50;96.00;;;;;;5049533;28;20041;-73
2022/03/07 02:12:38;;;;;;;46.15;25.48;;;3.50;95.90;;;;;;5047691;28;20024;-73
2022/03/07 02:15:07;;;;;;;44.63;25.08;;;3.50;95.80;;;;;;5037704;28;20041;-74
2022/03/07 02:17:33;;;;;;;42.17;24.80;;;3.50;95.80;;;;;;5046106;28;20033;-73
2022/03/07 02:19:59;;;;;;;42.38;25.65;;;3.50;95.80;;;;;;5044838;28;20017;-73
2022/03/07 02:22:25;;;;;;;42.97;24.90;;;3.50;95.90;;;;;;5033932;28;20047;-73
2022/03/07 02:24:51;;;;;;;43.95;25.55;;;3.50;96.00;;;;;;5049494;28;20039;-74
2022/03/07 02:27:18;;;;;;;45.70;26.20;;;3.50;95.90;;;;;;5050108;28;20033;-73
2022/03/07 02:29:47;;;;;;;45.97;25.15;;;3.50;95.80;;;;;;5046933;28;20024;-74
2022/03/07 02:32:14;;;;;;;39.92;24.77;;;3.40;95.80;;;;;;5028863;28;20025;-76
2022/03/07 02:34:40;;;;;;;43.92;25.25;;;3.40;95.80;;;;;;5041043;28;20031;-73
2022/03/07 02:37:06;;;;;;;47.28;26.63;;;3.40;95.80;;;;;;5042727;28;20021;-74
2022/03/07 02:39:31;;;;;;;45.53;26.33;;;3.40;95.70;;;;;;5046310;28;20025;-74
2022/03/07 02:41:57;;;;;;;41.53;24.98;;;3.40;95.80;;;;;;5045972;28;20037;-72
2022/03/07 02:44:24;;;;;;;43.83;25.10;;;3.30;95.80;;;;;;5028103;28;20033;-77
2022/03/07 02:46:50;;;;;;;45.00;25.13;;;3.30;95.70;;;;;;5050008;28;20112;-73
2022/03/07 02:49:16;;;;;;;43.03;25.83;;;3.30;95.70;;;;;;5048930;28;20446;-75
2022/03/07 02:51:42;;;;;;;46.10;25.85;;;3.20;95.90;;;;;;5049116;28;20044;-76
2022/03/07 02:54:08;;;;;;;44.70;25.48;;;3.20;95.90;;;;;;5049447;28;20033;-72
2022/03/07 02:56:33;;;;;;;46.30;25.30;;;3.20;95.90;;;;;;5050396;28;20025;-74
2022/03/07 02:58:59;;;;;;;40.92;24.50;;;3.10;96.00;;;;;;5049186;28;20021;-74
2022/03/07 03:01:25;;;;;;;42.22;25.13;;;3.10;95.90;;;;;;5047989;28;20071;-74
2022/03/07 03:03:51;;;;;;;46.42;25.48;;;3.10;95.90;;;;;;5050871;28;20025;-73
2022/03/07 03:06:17;;;;;;;44.42;25.60;;;3.10;96.00;;;;;;5050013;28;20040;-73
2022/03/07 03:08:43;;;;;;;44.72;25.85;;;3.10;96.10;;;;;;5049507;28;20054;-73
2022/03/07 03:11:09;;;;;;;45.20;26.10;;;3.00;96.10;;;;;;5049155;28;20033;-72
2022/03/07 03:13:34;;;;;;;47.67;25.90;;;3.00;96.10;;;;;;5049085;28;20021;-74
2022/03/07 03:16:00;;;;;;;43.15;25.13;;;3.00;96.10;;;;;;5051949;28;20033;-72
2022/03/07 03:18:26;;;;;;;43.60;25.00;;;3.00;96.00;;;;;;5052846;28;20163;-72
2022/03/07 03:20:52;;;;;;;45.38;26.27;;;3.00;96.10;;;;;;5048671;28;20104;-71
2022/03/07 03:23:19;;;;;;;41.70;25.42;;;3.00;96.10;;;;;;5025298;28;20025;-72
2022/03/07 03:25:45;;;;;;;43.15;24.73;;;3.00;96.30;;;;;;5042578;28;20104;-73
2022/03/07 03:28:12;;;;;;;44.25;26.30;;;2.90;95.80;;;;;;5046502;28;20496;-73
2022/03/07 03:30:37;;;;;;;43.90;25.30;;;2.90;96.00;;;;;;5048353;28;20464;-74
2022/03/07 03:33:04;;;;;;;44.97;26.45;;;2.90;95.90;;;;;;5036116;28;20070;-75
2022/03/07 03:35:30;;;;;;;44.33;25.88;;;2.90;95.90;;;;;;5045368;28;20025;-70
2022/03/07 03:37:56;;;;;;;44.63;26.27;;;2.90;95.80;;;;;;5043729;28;20055;-72
2022/03/07 03:40:22;;;;;;;45.25;25.63;;;2.90;95.70;;;;;;5021933;28;20029;-72
2022/03/07 03:42:47;;;;;;;41.80;25.40;;;2.80;95.60;;;;;;5048055;28;20025;-72
2022/03/07 03:45:14;;;;;;;45.65;24.83;;;2.80;95.60;;;;;;5048385;28;20033;-74
2022/03/07 03:47:41;;;;;;;42.05;25.27;;;2.80;95.70;;;;;;5047521;28;20020;-73
2022/03/07 03:50:10;;;;;;;42.88;25.65;;;2.80;96.10;;;;;;5040666;28;20136;-76
2022/03/07 03:52:36;;;;;;;43.78;26.27;;;2.70;96.20;;;;;;5043136;28;20029;-74
2022/03/07 03:55:03;;;;;;;43.53;25.63;;;2.70;96.20;;;;;;5042539;28;20079;-77
2022/03/07 03:57:29;;;;;;;42.72;25.17;;;2.70;96.20;;;;;;5032282;28;20051;-73
2022/03/07 03:59:55;;;;;;;43.60;25.38;;;2.70;96.10;;;;;;5049379;28;20033;-77
2022/03/07 04:02:21;;;;;;;42.92;25.50;;;2.70;96.20;;;;;;5044996;28;20037;-73
2022/03/07 04:04:47;;;;;;;48.20;25.35;;;2.70;96.10;;;;;;5045916;28;20029;-74
2022/03/07 04:07:13;;;;;;;43.70;25.75;;;2.70;96.10;;;;;;5044344;28;20123;-72
2022/03/07 04:09:39;;;;;;;44.70;25.70;;;2.70;95.60;;;;;;5047127;28;20029;-71
2022/03/07 04:12:05;;;;;;;42.30;25.65;;;2.60;96.00;;;;;;5046671;28;20403;-73
2022/03/07 04:14:31;;;;;;;46.58;26.15;;;2.60;96.10;;;;;;5041980;28;20021;-76
2022/03/07 04:16:57;;;;;;;43.40;26.02;;;2.60;96.10;;;;;;5043691;28;20103;-73
2022/03/07 04:19:23;;;;;;;46.30;26.40;;;2.60;96.00;;;;;;5043401;28;20057;-76
2022/03/07 04:21:49;;;;;;;44.10;26.33;;;2.60;96.00;;;;;;5046978;28;20059;-75
2022/03/07 04:24:15;;;;;;;44.40;25.70;;;2.60;96.10;;;;;;5034516;28;20067;-73
2022/03/07 04:26:42;;;;;;;44.65;26.23;;;2.60;96.00;;;;;;5054343;28;20647;-73
2022/03/07 04:29:09;;;;;;;42.40;25.50;;;2.50;96.00;;;;;;5050265;28;20491;-72
2022/03/07 04:31:36;;;;;;;47.63;25.98;;;2.50;95.90;;;;;;5037583;28;20045;-72
2022/03/07 04:34:03;;;;;;;42.88;25.08;;;2.50;96.00;;;;;;5046133;28;20043;-73
2022/03/07 04:36:29;;;;;;;43.75;25.85;;;2.40;96.00;;;;;;5047717;28;20025;-72
2022/03/07 04:38:55;;;;;;;44.47;25.17;;;2.40;96.10;;;;;;5042975;28;20138;-73
2022/03/07 04:41:21;;;;;;;43.88;26.35;;;2.40;96.10;;;;;;5045873;28;20495;-73
2022/03/07 04:43:46;;;;;;;41.80;26.33;;;2.40;96.20;;;;;;5042897;28;20039;-74
2022/03/07 04:46:12;;;;;;;43.47;25.85;;;2.40;96.20;;;;;;5044307;28;20100;-73
2022/03/07 04:48:38;;;;;;;44.05;25.92;;;2.40;96.20;;;;;;5046913;28;20033;-73
2022/03/07 04:51:04;;;;;;;45.50;26.38;;;2.40;96.20;;;;;;5047186;28;20072;-73
2022/03/07 04:53:30;;;;;;;44.00;26.35;;;2.30;96.40;;;;;;5046478;28;20476;-71
2022/03/07 04:55:56;;;;;;;44.85;26.05;;;2.30;96.40;;;;;;5043661;28;20029;-73
2022/03/07 04:58:22;;;;;;;44.33;25.95;;;2.30;96.60;;;;;;5049272;28;20025;-74
2022/03/07 05:00:48;;;;;;;70.72;26.35;;;2.30;96.50;;;;;;5045823;28;20411;-72
2022/03/07 05:03:13;;;;;;;45.60;26.63;;;2.20;96.50;;;;;;5049705;28;20024;-74
2022/03/07 05:05:39;;;;;;;41.67;24.70;;;2.20;96.70;;;;;;5050488;28;20037;-73
2022/03/07 05:08:05;;;;;;;44.97;26.27;;;2.20;96.70;;;;;;5040486;28;20029;-75
2022/03/07 05:10:31;;;;;;;42.42;25.77;;;2.20;96.80;;;;;;5030519;28;20045;-73
2022/03/07 05:12:57;;;;;;;41.47;25.45;;;2.20;96.80;;;;;;5050553;28;20021;-73
2022/03/07 05:15:23;;;;;;;43.60;25.67;;;2.20;96.90;;;;;;5045882;28;20056;-73
2022/03/07 05:17:56;;;;;;;41.47;25.55;;;2.20;97.20;;;;;;5046390;28;20017;-75
2022/03/07 05:20:23;;;;;;;46.10;25.63;;;2.20;97.10;;;;;;5047391;28;20123;-73
2022/03/07 05:22:49;;;;;;;44.25;26.40;;;2.10;97.30;;;;;;5049421;28;20507;-73
2022/03/07 05:25:16;;;;;;;44.67;26.25;;;2.10;97.20;;;;;;5049965;28;20029;-73
2022/03/07 05:27:42;;;;;;;43.33;25.45;;;2.10;96.90;;;;;;5046475;28;20029;-73
2022/03/07 05:30:09;;;;;;;46.58;26.60;;;2.10;97.20;;;;;;5050262;28;20094;-71
2022/03/07 05:32:35;;;;;;;42.47;25.33;;;2.10;97.40;;;;;;5046412;28;20033;-72
2022/03/07 05:35:01;;;;;;;41.92;25.13;;;2.10;97.60;;;;;;5045673;28;20588;-72
2022/03/07 05:37:27;;;;;;;46.67;27.45;;;2.10;97.60;;;;;;5045419;28;20029;-75
2022/03/07 05:39:53;;;;;;;42.20;24.70;;;2.00;97.60;;;;;;5049253;28;20040;-71
2022/03/07 05:42:18;;;;;;;46.90;25.50;;;2.00;97.60;;;;;;5049258;28;20060;-72
2022/03/07 05:44:44;;;;;;;41.35;25.20;;;2.00;97.50;;;;;;5048563;28;20115;-74
2022/03/07 05:47:11;;;;;;;44.70;26.25;;;2.00;97.40;;;;;;5052423;28;20029;-72
2022/03/07 05:49:36;;;;;;;45.00;26.27;;;2.00;97.60;;;;;;5049767;28;20037;-74
2022/03/07 05:52:03;;;;;;;43.42;26.02;;;2.00;97.60;;;;;;5047678;28;20607;-73
2022/03/07 05:54:29;;;;;;;40.88;25.20;;;1.90;97.60;;;;;;5029988;28;20017;-72
2022/03/07 05:56:55;;;;;;;42.72;25.27;;;1.90;97.60;;;;;;5030711;28;20190;-74
2022/03/07 05:59:21;;;;;;;45.78;26.05;;;1.90;97.80;;;;;;5049842;28;20492;-73
2022/03/07 06:01:46;;;;;;;40.78;24.17;;;1.90;97.80;;;;;;5045325;28;20051;-75
2022/03/07 06:04:12;;;;;;;41.00;25.52;;;1.90;97.60;;;;;;5044981;28;20029;-74
2022/03/07 06:06:38;;;;;;;46.15;26.63;;;1.90;97.50;;;;;;5048079;28;20033;-74
2022/03/07 06:09:04;;;;;;;43.30;25.15;;;1.90;97.40;;;;;;5048552;28;20103;-73
2022/03/07 06:11:29;;;;;;;43.55;25.70;;;1.90;97.60;;;;;;5047441;28;20103;-73
2022/03/07 06:13:55;;;;;;;40.55;25.52;;;1.90;97.70;;;;;;5043250;28;20044;-73
2022/03/07 06:16:21;;;;;;;42.58;24.92;;;1.80;97.70;;;;;;5043326;28;20029;-70
2022/03/07 06:18:47;;;;;;;43.72;24.77;;;1.80;97.70;;;;;;5048316;28;20104;-74
2022/03/07 06:21:12;;;;;;;44.95;25.65;;;1.80;97.70;;;;;;5046317;28;20116;-69
2022/03/07 06:23:38;;;;;;;42.83;24.25;;;1.80;97.70;;;;;;5047424;28;20443;-74
2022/03/07 06:26:05;;;;;;;48.35;25.92;;;1.80;97.70;;;;;;5030219;28;20028;-76
2022/03/07 06:28:31;;;;;;;46.58;25.27;;;1.70;97.70;;;;;;5045688;28;20058;-77
2022/03/07 06:30:58;;;;;;;43.08;25.02;;;1.80;97.70;;;;;;5046037;28;20041;-76
2022/03/07 06:33:24;;;;;;;41.08;25.25;;;1.80;97.90;;;;;;5048194;28;20013;-74
2022/03/07 06:35:50;;;;;;;44.50;26.10;;;1.80;97.90;;;;;;5044951;28;20044;-71
2022/03/07 06:38:16;;;;;;;42.05;24.42;;;1.80;97.70;;;;;;5048570;28;20045;-72
2022/03/07 06:40:42;;;;;;;41.80;25.02;;;1.80;97.60;;;;;;5037210;28;20033;-72
2022/03/07 06:43:08;;;;;;;42.30;24.75;;;1.80;97.50;;;;;;5047013;28;20753;-73
2022/03/07 06:45:34;;;;;;;47.92;27.55;;;1.80;97.30;;;;;;5047290;28;20032;-75
2022/03/07 06:47:59;;;;;;;45.10;25.50;;;1.80;97.10;;;;;;5038934;28;20926;-75
2022/03/07 06:50:26;;;;;;;43.42;25.13;;;1.90;96.90;;;;;;5028088;28;20048;-76
2022/03/07 06:52:52;;;;;;;41.35;24.05;;;1.90;96.60;;;;;;5048234;28;20123;-73
2022/03/07 06:55:18;;;;;;;40.85;25.20;;;2.00;96.60;;;;;;5047644;28;20028;-73
2022/03/07 06:57:44;;;;;;;41.92;24.73;;;2.00;96.30;;;;;;5043937;28;20029;-74
2022/03/07 07:00:13;;;;;;;40.08;24.23;;;2.10;96.10;;;;;;5048536;28;20063;-76
2022/03/07 07:02:39;;;;;;;39.85;24.50;;;2.20;95.80;;;;;;5049564;28;20029;-72
2022/03/07 07:05:06;;;;;;;38.78;23.45;;;2.50;94.90;;;;;;5049003;28;20075;-73
2022/03/07 07:07:32;;;;;;;39.47;23.70;;;3.00;93.70;;;;;;5047565;28;20623;-73
2022/03/07 07:09:58;;;;;;;40.20;24.75;;;3.70;91.80;;;;;;5046803;28;20021;-71
2022/03/07 07:12:24;;;;;;;38.78;25.15;;;4.30;89.70;;;;;;5048343;28;20029;-71
2022/03/07 07:14:50;;;;;;;36.45;23.70;;;5.00;85.50;;;;;;5047572;28;20021;-76
2022/03/07 07:17:17;;;;;;;41.45;26.48;;;5.70;80.50;;;;;;5048864;28;20047;-73
2022/03/07 07:19:43;;;;;;;41.30;28.75;;;6.30;76.00;;;;;;5045383;28;20488;-74
2022/03/07 07:22:09;;;;;;;45.25;23.73;;;6.90;72.70;;;;;;5047167;28;20476;-76
2022/03/07 07:24:35;;;;;;;42.17;24.58;;;7.40;69.10;;;;;;5029266;28;20025;-74
2022/03/07 07:27:01;;;;;;;37.97;25.48;;;7.90;65.10;;;;;;5048452;28;20041;-73
2022/03/07 07:29:27;;;;;;;35.90;24.80;;;8.40;62.40;;;;;;5042499;28;20032;-73
2022/03/07 07:31:53;;;;;;;40.08;28.05;;;9.00;60.20;;;;;;5044116;28;20087;-73
2022/03/07 07:34:20;;;;;;;36.63;24.65;;;9.40;56.50;;;;;;5046625;28;20498;-73
2022/03/07 07:36:47;;;;;;;36.80;25.00;;;9.90;54.00;;;;;;5045752;28;20038;-71
2022/03/07 07:39:12;;;;;;;34.00;24.92;;;10.30;51.40;;;;;;5045636;28;20559;-73
2022/03/07 07:41:38;;;;;;;34.92;25.63;;;10.70;50.50;;;;;;5042693;28;20076;-74
2022/03/07 07:44:04;;;;;;;32.17;24.45;;;11.10;48.50;;;;;;5040986;28;20017;-74
2022/03/07 07:46:30;;;;;;;34.78;26.42;;;11.60;46.70;;;;;;5043590;28;20770;-75
2022/03/07 07:48:56;;;;;;;33.65;25.95;;;12.10;45.90;;;;;;5042762;28;20512;-75
2022/03/07 07:51:22;;;;;;;32.53;23.83;;;12.70;44.00;;;;;;5046494;28;20045;-77
2022/03/07 07:53:48;;;;;;;36.28;28.80;;;13.20;42.20;;;;;;5047348;28;20488;-73
2022/03/07 07:56:14;;;;;;;34.47;28.48;;;13.70;40.80;;;;;;5044260;28;20036;-75
2022/03/07 07:58:40;;;;;;;30.33;25.20;;;14.10;39.80;;;;;;5045235;28;20032;-72
2022/03/07 08:01:06;;;;;;;31.65;25.00;;;14.40;38.80;;;;;;5041846;28;20029;-74
2022/03/07 08:03:32;;;;;;;31.23;25.90;;;14.80;37.40;;;;;;5046636;28;20034;-73
2022/03/07 08:05:58;;;;;;;31.60;25.73;;;15.10;36.40;;;;;;5036189;28;20033;-73
2022/03/07 08:08:24;;;;;;;31.63;26.60;;;15.60;35.90;;;;;;5042488;28;20404;-74
2022/03/07 08:10:50;;;;;;;28.90;25.25;;;16.00;35.20;;;;;;5038548;28;20048;-75
2022/03/07 08:13:16;;;;;;;32.58;27.88;;;16.50;34.70;;;;;;5036804;28;20492;-74
2022/03/07 08:15:51;;;;;;;28.80;24.85;;;17.00;33.40;;;;;;5047006;28;20040;-76
2022/03/07 08:18:18;;;;;;;29.42;25.23;;;17.50;32.20;;;;;;5046046;28;20032;-75
2022/03/07 08:20:46;;;;;;;29.60;25.27;;;17.90;31.10;;;;;;5042898;28;20033;-76
2022/03/07 08:23:11;;;;;;;28.83;24.10;;;18.30;30.10;;;;;;5041091;28;20043;-74
2022/03/07 08:25:37;;;;;;;29.23;25.67;;;18.60;29.70;;;;;;5045199;28;20029;-75
2022/03/07 08:28:03;;;;;;;28.08;25.02;;;18.90;29.80;;;;;;5046101;28;20404;-75
2022/03/07 08:30:29;;;;;;;28.08;25.17;;;19.20;29.00;;;;;;5044694;28;20029;-75
2022/03/07 08:32:56;;;;;;;27.70;24.27;;;19.70;28.60;;;;;;5048572;28;20464;-76
2022/03/07 08:35:23;;;;;;;28.30;25.40;;;20.00;28.00;;;;;;5051026;28;20099;-78
2022/03/07 08:37:50;;;;;;;28.25;25.20;;;20.50;27.80;;;;;;5038233;28;20036;-76
2022/03/07 08:40:19;;;;;;;27.80;24.13;;;20.80;27.00;;;;;;5041304;28;20468;-75
2022/03/07 08:42:46;;;;;;;26.90;24.08;;;20.90;26.30;;;;;;5030389;28;20168;-76
2022/03/07 08:45:12;;;;;;;28.88;24.77;;;21.10;26.20;;;;;;5056998;28;20040;-74
2022/03/07 08:47:39;;;;;;;25.33;22.65;;;21.40;26.30;;;;;;5048854;28;20037;-75
2022/03/07 08:50:08;;;;;;;27.45;24.60;;;21.60;25.80;;;;;;5042462;28;20602;-75
2022/03/07 08:52:35;;;;;;;26.20;23.55;;;21.80;25.60;;;;;;5046210;28;20076;-75
2022/03/07 08:55:00;;;;;;;27.52;24.73;;;21.90;24.90;;;;;;5041742;28;20035;-74
2022/03/07 08:57:26;;;;;;;27.35;24.55;;;22.20;24.80;;;;;;5047576;28;20029;-73
2022/03/07 08:59:52;;;;;;;26.65;23.85;;;22.50;24.80;;;;;;5048746;28;20056;-75
2022/03/07 09:02:18;;;;;;;26.85;23.05;;;23.10;24.30;;;;;;5048332;28;20062;-73
2022/03/07 09:04:44;;;;;;;26.90;24.10;;;23.50;23.80;;;;;;5039477;28;20040;-73
2022/03/07 09:07:10;;;;;;;25.30;22.58;;;23.90;23.20;;;;;;5047492;28;20043;-75
2022/03/07 09:09:36;;;;;;;25.70;23.00;;;24.20;22.50;;;;;;5046268;28;20032;-75
2022/03/07 09:12:05;;;;;;;26.83;23.95;;;24.10;22.70;;;;;;5045995;28;20558;-76
2022/03/07 09:14:31;;;;;;;30.45;27.23;;;23.80;22.50;;;;;;5052801;28;20629;-74
2022/03/07 09:16:57;;;;;;;24.92;22.42;;;24.10;22.60;;;;;;5047680;28;20064;-75
2022/03/07 09:19:23;;;;;;;28.52;25.67;;;24.50;21.90;;;;;;5045802;28;20507;-77
2022/03/07 09:21:49;;;;;;;24.27;21.77;;;24.80;22.10;;;;;;5049339;28;20021;-74
2022/03/07 09:24:15;;;;;;;25.50;22.90;;;25.30;21.40;;;;;;5048327;28;20407;-78
2022/03/07 09:26:41;;;;;;;27.13;24.30;;;25.60;21.10;;;;;;5047976;28;20032;-77
2022/03/07 09:29:07;;;;;;;26.15;23.48;;;26.10;21.00;;;;;;5049713;28;20037;-79
2022/03/07 09:31:33;;;;;;;27.65;24.77;;;26.70;20.90;;;;;;5050291;28;20049;-79
2022/03/07 09:33:58;;;;;;;25.02;22.48;;;27.20;20.00;;;;;;5053258;28;20036;-80
2022/03/07 09:36:24;;;;;;;26.15;23.45;;;27.20;19.80;;;;;;5048430;28;20028;-77
2022/03/07 09:38:50;;;;;;;24.45;22.15;;;27.50;20.00;;;;;;5047147;28;20084;-75
2022/03/07 09:41:17;;;;;;;23.67;21.38;;;27.90;19.40;;;;;;5049062;28;20033;-76
2022/03/07 09:43:44;;;;;;;23.85;21.35;;;27.90;19.30;;;;;;5044968;28;20040;-76
2022/03/07 09:46:10;;;;;;;24.30;21.90;;;28.40;19.50;;;;;;5046635;28;20025;-78
2022/03/07 09:48:36;;;;;;;24.83;22.27;;;28.60;18.70;;;;;;5030473;28;20484;-76
2022/03/07 09:51:02;;;;;;;24.17;21.77;;;28.50;18.50;;;;;;5045102;28;20061;-76
2022/03/07 09:53:28;;;;;;;23.85;21.42;;;28.60;18.40;;;;;;5036789;28;20033;-77
2022/03/07 09:55:53;;;;;;;23.33;20.75;;;28.90;18.10;;;;;;5038640;28;20030;-76
2022/03/07 09:58:19;;;;;;;22.88;20.58;;;28.90;18.30;;;;;;5047557;28;20023;-79
2022/03/07 10:00:46;;;;;;;23.63;21.17;;;28.60;18.10;;;;;;5027156;28;20033;-78
2022/03/07 10:03:15;;;;;;;21.80;19.60;;;28.90;18.30;;;;;;5050095;28;20102;-78
2022/03/07 10:05:44;;;;;;;22.77;20.33;;;29.00;18.80;;;;;;5023966;28;20044;-78
2022/03/07 10:08:10;;;;;;;22.10;19.90;;;28.90;18.10;;;;;;5044881;28;20300;-76
2022/03/07 10:10:40;;;;;;;21.98;19.60;;;29.20;17.60;;;;;;5044337;28;20028;-77
2022/03/07 10:13:14;;;;;;;23.13;20.73;;;29.60;17.70;;;;;;5046556;28;20029;-76
2022/03/07 10:15:41;;;;;;;21.33;19.23;;;29.70;18.00;;;;;;5043016;28;20037;-80
2022/03/07 10:18:15;;;;;;;23.80;21.30;;;29.80;17.60;;;;;;5045181;28;20063;-79
2022/03/07 10:20:52;;;;;;;22.35;20.15;;;30.00;17.70;;;;;;5037089;28;20036;-79
2022/03/07 10:23:19;;;;;;;22.25;19.98;;;30.60;17.40;;;;;;5038461;28;20040;-78
2022/03/07 10:25:45;;;;;;;21.70;19.50;;;31.30;17.00;;;;;;5040472;28;20086;-78
2022/03/07 10:28:12;;;;;;;21.40;19.30;;;31.80;16.90;;;;;;5052869;28;20029;-79
2022/03/07 10:30:39;;;;;;;21.92;19.83;;;31.90;16.60;;;;;;5049626;28;20044;-79
2022/03/07 10:33:13;;;;;;;20.95;18.80;;;32.40;16.20;;;;;;5041697;28;20126;-80
2022/03/07 10:35:41;;;;;;;21.17;19.17;;;32.70;16.00;;;;;;5041693;28;20423;-80
2022/03/07 10:38:16;;;;;;;20.20;18.00;;;32.60;15.70;;;;;;5047360;28;20041;-79
2022/03/07 10:40:47;;;;;;;22.05;19.85;;;33.00;15.50;;;;;;5049253;28;20036;-79
2022/03/07 10:43:13;;;;;;;22.65;19.27;;;33.50;15.80;;;;;;5049168;28;20060;-77
2022/03/07 10:45:49;;;;;;;20.08;17.63;;;33.80;15.40;;;;;;5046476;28;20029;-80
2022/03/07 10:48:16;;;;;;;20.45;18.48;;;34.10;14.90;;;;;;5029631;28;20029;-78
2022/03/07 10:50:53;;;;;;;19.27;17.35;;;33.90;14.70;;;;;;5024905;28;20122;-80
2022/03/07 10:53:21;;;;;;;19.73;17.73;;;33.80;14.80;;;;;;5046133;28;20035;-79
2022/03/07 10:55:58;;;;;;;18.65;16.63;;;33.70;14.70;;;;;;5046362;28;20032;-82
2022/03/07 10:58:25;;;;;;;21.77;19.60;;;33.40;14.70;;;;;;5040259;28;20063;-81
2022/03/07 11:01:01;;;;;;;22.02;17.33;;;33.30;15.00;;;;;;5046739;28;20033;-79
2022/03/07 11:03:29;;;;;;;18.65;16.80;;;33.40;14.70;;;;;;5047806;28;20037;-78
2022/03/07 11:05:56;;;;;;;18.25;16.35;;;33.60;14.50;;;;;;5038023;28;20526;-77
2022/03/07 11:08:23;;;;;;;18.17;16.40;;;33.70;14.60;;;;;;5046511;28;20672;-77
2022/03/07 11:10:52;;;;;;;20.17;18.17;;;33.70;14.30;;;;;;5029559;28;20138;-77
2022/03/07 11:13:20;;;;;;;29.42;16.02;;;33.60;14.20;;;;;;5043729;28;20091;-81
2022/03/07 11:15:47;;;;;;;15.98;14.48;;;34.30;14.30;;;;;;5026657;28;20030;-77
2022/03/07 11:18:15;;;;;;;15.80;14.20;;;34.40;13.40;;;;;;5039021;28;20029;-78
2022/03/07 11:20:43;;;;;;;16.80;15.30;;;34.40;13.60;;;;;;5041055;28;20024;-76
2022/03/07 11:23:11;;;;;;;17.48;15.63;;;34.60;14.00;;;;;;5045601;28;20037;-78
2022/03/07 11:25:40;;;;;;;15.90;14.40;;;34.90;13.60;;;;;;5042652;28;20021;-78
2022/03/07 11:28:07;;;;;;;17.38;15.77;;;34.70;13.20;;;;;;5038923;28;20051;-78
2022/03/07 11:30:35;;;;;;;16.50;14.82;;;34.60;13.50;;;;;;5045784;28;20041;-77
2022/03/07 11:33:15;;;;;;;15.77;14.25;;;34.70;13.80;;;;;;5027769;28;20091;-77
2022/03/07 11:35:42;;;;;;;;;;;34.90;13.30;;;;;;5041157;28;20025;-77
2022/03/07 11:38:17;;;;;;;15.77;14.27;;;35.00;13.40;;;;;;5020185;28;19916;-79
2022/03/07 11:41:06;;;;;;;16.08;14.60;;;35.50;12.80;;;;;;5041167;28;20559;-77
2022/03/07 11:43:47;;;;;;;15.98;14.32;;;34.10;13.60;;;;;;5033352;28;20591;-79
2022/03/07 11:46:34;;;;;;;15.70;14.05;;;34.30;13.50;;;;;;5022086;28;20029;-77
2022/03/07 11:49:01;;;;;;;14.20;12.70;;;34.50;13.40;;;;;;5040056;28;20053;-77
2022/03/07 11:51:29;;;;;;;15.52;14.00;;;31.80;13.80;;;;;;5043232;28;20514;-77
2022/03/07 11:53:57;;;;;;;14.50;12.95;;;31.60;14.20;;;;;;5043608;28;20503;-77
2022/03/07 11:56:29;;;;;;;15.35;13.80;;;32.40;13.90;;;;;;5043620;28;20029;-76
2022/03/07 11:58:56;;;;;;;14.00;12.50;;;30.20;15.20;;;;;;5039928;28;20055;-76
2022/03/07 12:01:24;;;;;;;13.18;11.88;;;30.00;15.20;;;;;;5038352;28;20021;-76
2022/03/07 12:03:51;;;;;;;13.93;11.23;;;31.40;13.60;;;;;;5045880;28;20509;-78
2022/03/07 12:06:19;;;;;;;15.52;13.48;;;31.30;13.30;;;;;;5041744;28;20516;-79
2022/03/07 12:08:50;;;;;;;14.68;13.20;;;29.20;15.00;;;;;;5048337;28;20040;-76
2022/03/07 12:11:31;;;;;;;15.48;13.88;;;30.90;14.70;;;;;;5052073;28;20033;-74
2022/03/07 12:14:10;;;;;;;15.13;12.40;;;32.20;13.70;;;;;;5048909;28;20032;-74
2022/03/07 12:16:41;;;;;;;13.23;11.93;;;33.30;13.40;;;;;;5044359;28;20040;-74
2022/03/07 12:19:18;;;;;;;13.65;12.35;;;33.30;12.70;;;;;;5048262;28;20029;-76
2022/03/07 12:21:46;;;;;;;14.75;13.25;;;33.50;13.20;;;;;;5050611;28;20036;-82
2022/03/07 12:24:15;;;;;;;13.93;12.52;;;33.70;12.80;;;;;;5049932;28;20028;-77
2022/03/07 12:26:50;;;;;;;13.45;12.20;;;33.80;12.60;;;;;;5041866;28;20036;-77
2022/03/07 12:29:18;;;;;;;12.55;11.27;;;33.60;12.60;;;;;;5049907;28;20040;-75
2022/03/07 12:31:59;;;;;;;13.85;12.32;;;33.20;12.40;;;;;;5044557;28;20080;-77